ONX weather

Currituck County Regional Airport
Currituck, North Carolina, United States

Public forecast

Using degrees Fahrenheit for public forecast. Weather courtesy of forecast.io.

Current aviation weather report (METAR) for Currituck County Regional Airport

Retrieved 2019/10/22 13:35 UTC (0 seconds ago):

KONX 221335Z AUTO 15003KT 10SM OVC011 16/16 A3002 RMK AO2 T01640156

Closest aviation forecast (TAF) to Currituck County Regional Airport

Closest forecast is Elizabeth City Regional Airport & Coast Guard Air Station, 11.3 nm (20.9 km) SW. Retrieved 2019/10/22 14:12 UTC (0 seconds ago):

TAF KECG 221407Z 2214/2312 16006KT P6SM OVC009 TEMPO 2214/2217 BKN015 FM221700 15010KT P6SM VCSH SCT025 BKN045 FM222000 15012KT 6SM -SHRA BKN025 FM222300 17011KT P6SM OVC012 FM230400 26010KT P6SM BKN020